»·PEaware :: N5002T KSBA-KSNA

N5002T :: KSBA-KSNA

FLIGHT INFORMATION

Flight Status: Arrived
Operator: Privately registered:
United States
More flights under this callsign
Pilot: Hunter M. (19355)
Aircraft: CESSNA 172 SKYHAWK
(C172)
More flights by this aircraft type
Origin: KSBA Santa Barbara Mun
United States
Destination: KSNA John Wayne-Orange Co
United States
More flights between these airports :: More routes between these airports
Route: KWANG CMA VNY V186 BAYJY V363 POXKU V8 SLI
File this flight plan on PilotEdge
Remarks:
Altitude:
(Current/Filed)
5,000ft
Speed:
(Current/Filed)
118kts
Departed: 16-Dec-18 05:52 PM
Arrived: 16-Dec-18 07:05 PM
Distance/Time
Traveled:
108nm/1:13
Distance/Time
To Go:
Arrived

Flight Plot

Page will automatically refresh every two minutes.


Map Options




Map Legend


Flown Route
Filed Route
Departure Airport
Arrival Airport
Navaid (VOR, NDB)
Fix

Horizontal Profiles

Position Reports

Time Latitude Longitude Heading Altitude Ground
Speed
16-Dec-18 17:21 34.431455 -119.831911 357 13ft 0kts
16-Dec-18 17:22 34.431455 -119.831911 357 13ft 0kts
16-Dec-18 17:23 34.431455 -119.831911 357 13ft 0kts
16-Dec-18 17:24 34.431455 -119.831911 357 13ft 0kts
16-Dec-18 17:25 34.431455 -119.831911 357 13ft 0kts
16-Dec-18 17:26 34.431455 -119.831911 357 13ft 0kts
16-Dec-18 17:27 34.431455 -119.831911 357 13ft 0kts
16-Dec-18 17:28 34.431455 -119.831911 357 13ft 0kts
16-Dec-18 17:29 34.431455 -119.831911 357 13ft 0kts
16-Dec-18 17:30 34.431455 -119.831911 357 13ft 0kts
16-Dec-18 17:31 34.431455 -119.831911 357 13ft 0kts
16-Dec-18 17:32 34.431455 -119.831911 357 13ft 0kts
16-Dec-18 17:33 34.431455 -119.831911 357 13ft 0kts
16-Dec-18 17:34 34.431455 -119.831911 357 13ft 0kts
16-Dec-18 17:35 34.431455 -119.831911 357 13ft 0kts
16-Dec-18 17:36 34.431455 -119.831911 357 13ft 0kts
16-Dec-18 17:37 34.431455 -119.831911 357 13ft 0kts
16-Dec-18 17:38 34.431455 -119.831911 357 13ft 0kts
16-Dec-18 17:39 34.431455 -119.831911 357 13ft 0kts
16-Dec-18 17:40 34.431455 -119.831911 357 13ft 0kts
16-Dec-18 17:41 34.431455 -119.831911 357 13ft 0kts
16-Dec-18 17:42 34.431455 -119.831911 357 13ft 0kts
16-Dec-18 17:43 34.431848 -119.832976 292 13ft 9kts
16-Dec-18 17:44 34.432699 -119.833503 252 13ft 2kts
16-Dec-18 17:45 34.432075 -119.835537 246 13ft 0kts
16-Dec-18 17:46 34.430948 -119.839113 242 13ft 5kts
16-Dec-18 17:47 34.430884 -119.839268 245 13ft 4kts
16-Dec-18 17:48 34.430707 -119.839697 240 13ft 0kts
16-Dec-18 17:49 34.430707 -119.839697 240 13ft 0kts
16-Dec-18 17:50 34.430336 -119.840185 177 13ft 0kts
16-Dec-18 17:51 34.417648 -119.836099 158 318ft 78kts
16-Dec-18 17:53 34.397639 -119.825446 160 1167ft 81kts
16-Dec-18 17:54 34.377384 -119.815806 159 2067ft 74kts
16-Dec-18 17:55 34.357715 -119.804850 158 2827ft 85kts
16-Dec-18 17:56 34.333506 -119.792603 140 3488ft 95kts
16-Dec-18 17:57 34.330143 -119.763717 88 4250ft 85kts
16-Dec-18 17:58 34.328214 -119.735943 88 4953ft 83kts
16-Dec-18 17:59 34.325352 -119.701271 92 5008ft 116kts
16-Dec-18 18:00 34.322187 -119.662510 92 4998ft 114kts
16-Dec-18 18:01 34.319127 -119.624131 92 5000ft 114kts
16-Dec-18 18:02 34.316072 -119.585921 92 5000ft 114kts
16-Dec-18 18:03 34.313013 -119.547787 92 5000ft 114kts
16-Dec-18 18:04 34.309934 -119.509517 93 5006ft 114kts
16-Dec-18 18:05 34.306820 -119.471036 93 5008ft 115kts
16-Dec-18 18:06 34.303686 -119.432451 93 5009ft 115kts
16-Dec-18 18:07 34.300528 -119.393706 94 5009ft 115kts
16-Dec-18 18:08 34.297369 -119.355114 94 5008ft 115kts
16-Dec-18 18:09 34.294193 -119.316465 94 5008ft 115kts
16-Dec-18 18:09 34.291534 -119.284200 94 5009ft 115kts
16-Dec-18 18:11 34.287809 -119.239095 94 5009ft 115kts
16-Dec-18 18:11 34.284908 -119.204094 95 4951ft 133kts
16-Dec-18 18:13 34.281001 -119.157386 96 5008ft 115kts
16-Dec-18 18:13 34.278315 -119.125245 96 4995ft 113kts
16-Dec-18 18:14 34.275227 -119.088305 94 5003ft 111kts
16-Dec-18 18:15 34.272033 -119.050563 92 5002ft 112kts
16-Dec-18 18:17 34.268306 -119.006578 92 5001ft 112kts
16-Dec-18 18:17 34.265626 -118.975068 92 5001ft 112kts
16-Dec-18 18:18 34.262408 -118.937316 93 4999ft 113kts
16-Dec-18 18:19 34.259167 -118.899489 93 4999ft 113kts
16-Dec-18 18:20 34.255916 -118.861676 93 4999ft 113kts
16-Dec-18 18:21 34.252659 -118.823931 93 5000ft 113kts
16-Dec-18 18:22 34.249379 -118.786054 93 5003ft 113kts
16-Dec-18 18:23 34.246103 -118.748349 93 5003ft 113kts
16-Dec-18 18:24 34.242800 -118.710482 93 5003ft 113kts
16-Dec-18 18:25 34.239490 -118.672678 93 4999ft 113kts
16-Dec-18 18:26 34.236172 -118.634895 93 5000ft 113kts
16-Dec-18 18:27 34.232843 -118.597141 93 4997ft 113kts
16-Dec-18 18:28 34.229491 -118.559264 93 4991ft 113kts
16-Dec-18 18:29 34.226136 -118.521491 93 4991ft 113kts
16-Dec-18 18:30 34.221429 -118.483960 108 4996ft 113kts
16-Dec-18 18:31 34.210360 -118.448067 108 4989ft 114kts
16-Dec-18 18:32 34.199457 -118.412175 109 4989ft 113kts
16-Dec-18 18:33 34.188535 -118.376219 108 4989ft 113kts
16-Dec-18 18:34 34.177683 -118.340474 111 4992ft 113kts
16-Dec-18 18:35 34.166865 -118.304913 111 4991ft 112kts
16-Dec-18 18:36 34.156123 -118.269629 112 4990ft 111kts
16-Dec-18 18:37 34.145420 -118.234507 112 4991ft 111kts
16-Dec-18 18:38 34.134798 -118.199660 112 4988ft 110kts
16-Dec-18 18:39 34.124207 -118.164986 112 4988ft 110kts
16-Dec-18 18:40 34.113442 -118.129917 112 5075ft 121kts
16-Dec-18 18:41 34.101317 -118.090261 108 4966ft 110kts
16-Dec-18 18:42 34.090585 -118.055293 109 5015ft 112kts
16-Dec-18 18:43 34.079571 -118.019442 109 5011ft 114kts
16-Dec-18 18:44 34.068655 -117.983930 112 5005ft 111kts
16-Dec-18 18:45 34.057898 -117.949019 112 5009ft 111kts
16-Dec-18 18:46 34.047131 -117.914086 112 5010ft 111kts
16-Dec-18 18:47 34.036299 -117.878995 109 5013ft 112kts
16-Dec-18 18:48 34.025290 -117.843361 109 5016ft 113kts
16-Dec-18 18:49 34.014225 -117.807616 109 5016ft 114kts
16-Dec-18 18:50 33.993910 -117.785019 184 4722ft 106kts
16-Dec-18 18:51 33.964264 -117.784633 182 4060ft 104kts
16-Dec-18 18:52 33.936283 -117.784059 182 3719ft 107kts
16-Dec-18 18:53 33.905523 -117.784323 184 3079ft 110kts
16-Dec-18 18:54 33.877617 -117.786288 187 2984ft 93kts
16-Dec-18 18:55 33.851981 -117.788049 187 2996ft 92kts
16-Dec-18 18:56 33.826395 -117.789785 187 2996ft 92kts
16-Dec-18 18:57 33.800631 -117.791488 187 2996ft 92kts
16-Dec-18 18:58 33.774857 -117.793190 190 2989ft 92kts
16-Dec-18 18:59 33.754584 -117.805571 226 2898ft 77kts
16-Dec-18 19:00 33.739437 -117.823666 223 2431ft 80kts
16-Dec-18 19:01 33.722360 -117.838885 210 2093ft 69kts
16-Dec-18 19:02 33.706466 -117.848635 214 1571ft 59kts
16-Dec-18 19:03 33.691943 -117.858571 208 495ft 58kts
16-Dec-18 19:04 33.678991 -117.866708 208 59ft 19kts
16-Dec-18 19:05 33.678349 -117.868066 294 59ft 10kts
16-Dec-18 19:06 33.679003 -117.869571 298 59ft 0kts

Navigation Log

Ident Type
Flight plan parsing failed, navigation log unavailable